^^
Datos históricos de la estación: Murcia-Puente Tocinos
Diario Informe para Junio 18, 2021 Unidades:  Ingés    Métrico   Ambas
Diario Semanal Mensual Anual
  Máxima: Mínima: Promedio:
Temperatura: 82.2 °F 70.7 °F 76.5 °F
Punto de rocio: 66 °F 58.1 °F 61.9 °F
Humedad: 80% 48.4% 61%
Velocidad viento: 11.4mph 0mph 5.7mph
Racha viento: 22mph - -
Viento- - SE
Presión: 29.9 in 29.8 in -
Precipitación: 0 in    
 
 
Tabla de datos para Junio 18, 2021
Hora Temperatura Punto de rocio Presión Viento Velocidad viento Racha viento Humedad Intensidad lluvia(por hora) Nubes
00:04 78.3 °F 60.6 °F 29.8 in Calm   3 mph 54.8% 0 in
00:09 78.3 °F 60.6 °F 29.8 in SO 1.1 mph 3 mph 54.7% 0 in
00:14 78.1 °F 60.8 °F 29.8 in Oeste 1.8 mph 3.5 mph 55.5% 0 in
00:19 78.1 °F 60.8 °F 29.8 in NO 1.8 mph 3.6 mph 55.7% 0 in
00:24 77.7 °F 60.8 °F 29.8 in NO 1.8 mph 4.6 mph 56% 0 in
00:29 77.7 °F 61.2 °F 29.8 in NO 2.5 mph 5.9 mph 56.7% 0 in
00:34 77.5 °F 61.3 °F 29.8 in ONO 2.9 mph 6 mph 57.5% 0 in
00:39 77.4 °F 61.5 °F 29.8 in Oeste 3 mph 4.6 mph 58.3% 0 in
00:44 77.2 °F 61.7 °F 29.8 in OSO 3.1 mph 5 mph 59% 0 in
00:49 77.2 °F 61.7 °F 29.8 in SO 2.7 mph 3.6 mph 59% 0 in
00:54 77.2 °F 61.7 °F 29.8 in SO 2.4 mph 3.6 mph 59% 0 in
00:59 77.2 °F 61.7 °F 29.8 in OSO 2.4 mph 4.7 mph 59% 0 in
01:04 77.2 °F 61.7 °F 29.8 in Oeste 2.4 mph 6.9 mph 59% 0 in
01:09 76.8 °F 61.7 °F 29.9 in NO 2.9 mph 7 mph 59.6% 0 in
01:14 76.6 °F 61.7 °F 29.9 in NO 3.1 mph 4.7 mph 60% 0 in
01:19 76.5 °F 61.9 °F 29.9 in NO 3 mph 5.8 mph 60.8% 0 in
01:24 76.3 °F 61.7 °F 29.9 in NO 2.9 mph 6 mph 61% 0 in
01:29 75.9 °F 62.1 °F 29.9 in NO 2.9 mph 5 mph 62% 0 in
01:34 75.9 °F 62.1 °F 29.9 in NNO 2.9 mph 3.5 mph 62% 0 in
01:39 75.7 °F 62.1 °F 29.9 in NNO 2.4 mph 4.7 mph 62.7% 0 in
01:44 75.6 °F 62.4 °F 29.9 in North 2 mph 4.6 mph 63.9% 0 in
01:49 75.2 °F 62.6 °F 29.9 in North 2.2 mph 5 mph 65% 0 in
01:54 75 °F 62.4 °F 29.9 in NNO 2.4 mph 4.6 mph 65% 0 in
01:59 74.8 °F 62.2 °F 29.8 in North 2.1 mph 5 mph 65% 0 in
02:04 74.7 °F 62.2 °F 29.8 in NNO 2 mph 3 mph 65% 0 in
02:09 74.7 °F 62.4 °F 29.9 in NNO 1.9 mph 2.9 mph 65.8% 0 in
02:14 74.5 °F 62.2 °F 29.9 in NNE 1.8 mph 5.9 mph 65.6% 0 in
02:19 74.1 °F 61.9 °F 29.9 in SE 2.4 mph 6.9 mph 65.4% 0 in
02:24 73.9 °F 61.7 °F 29.9 in ESE 2.9 mph 9.2 mph 65.6% 0 in
02:29 73.8 °F 61.2 °F 29.9 in ESE 4.4 mph 8.1 mph 64.7% 0 in
02:34 73.8 °F 60.8 °F 29.9 in SE 5.4 mph 6.9 mph 63.8% 0 in
02:39 73.9 °F 60.4 °F 29.9 in SSO 4.8 mph 6.2 mph 62.6% 0 in
02:44 74.3 °F 60.4 °F 29.9 in OSO 4.3 mph 6 mph 61.9% 0 in
02:49 74.5 °F 60.6 °F 29.9 in Oeste 3.2 mph 3.6 mph 61.9% 0 in
02:54 74.7 °F 60.6 °F 29.9 in NE 2.4 mph 5.2 mph 61.6% 0 in
02:59 74.7 °F 60.8 °F 29.8 in NE 2.7 mph 5 mph 62% 0 in
03:04 74.7 °F 60.8 °F 29.8 in NE 2.9 mph 5 mph 62% 0 in
03:09 74.7 °F 60.8 °F 29.8 in ONO 2.2 mph 3.5 mph 62% 0 in
03:14 74.7 °F 61.2 °F 29.8 in ONO 1.8 mph 4 mph 62.9% 0 in
03:19 74.5 °F 61 °F 29.8 in OSO 1.9 mph 4.6 mph 63% 0 in
03:24 74.1 °F 61.2 °F 29.8 in OSO 2 mph 5 mph 63.9% 0 in
03:29 74.1 °F 61.2 °F 29.8 in NNO 1.9 mph 4.6 mph 64% 0 in
03:34 73.9 °F 61.3 °F 29.8 in ONO 1.8 mph 4.6 mph 64.8% 0 in
03:39 73.9 °F 61.3 °F 29.9 in SO 2.2 mph 4.6 mph 65% 0 in
03:44 73.8 °F 61.7 °F 29.9 in ONO 2.4 mph 5 mph 65.9% 0 in
03:49 73.8 °F 62.1 °F 29.9 in NNO 2.2 mph 5 mph 66.8% 0 in
03:54 73.6 °F 61.9 °F 29.9 in North 2 mph 3.5 mph 67% 0 in
03:59 73.6 °F 61.9 °F 29.8 in North 1.9 mph 3 mph 67% 0 in
04:04 73.4 °F 61.9 °F 29.8 in NNE 1.8 mph 3.5 mph 67.3% 0 in
04:09 73.2 °F 61.7 °F 29.8 in NE 1.6 mph 3.5 mph 67.2% 0 in
04:14 73.2 °F 62.1 °F 29.8 in NE 1.4 mph 4 mph 68% 0 in
04:19 73 °F 62.1 °F 29.8 in Este 2.1 mph 5 mph 68.4% 0 in
04:24 72.5 °F 62.1 °F 29.8 in ESE 2.4 mph 5 mph 69.7% 0 in
04:29 72.3 °F 62.2 °F 29.8 in ESE 2.4 mph 5 mph 70.4% 0 in
04:34 72.3 °F 62.4 °F 29.8 in SE 2.4 mph 4.6 mph 71% 0 in
04:39 72.3 °F 62.2 °F 29.8 in SSE 2.7 mph 5.4 mph 70.7% 0 in
04:44 72.3 °F 62.1 °F 29.8 in SSE 2.9 mph 5.8 mph 70% 0 in
04:49 72.3 °F 62.1 °F 29.8 in Sur 3 mph 4.6 mph 70% 0 in
04:54 72.3 °F 61.9 °F 29.8 in SSE 3.1 mph 5.9 mph 69.7% 0 in
04:59 72.3 °F 61.7 °F 29.8 in SSE 2.4 mph 6 mph 69.3% 0 in
05:04 72.3 °F 61.5 °F 29.8 in SSE 2 mph 5 mph 69.1% 0 in
05:09 72.3 °F 61.5 °F 29.8 in SO 2.7 mph 5.8 mph 69% 0 in
05:14 72.3 °F 61.5 °F 29.8 in OSO 3.1 mph 3.6 mph 69% 0 in
05:19 72.5 °F 61.7 °F 29.8 in SO 2.7 mph 4.7 mph 69% 0 in
05:24 72.5 °F 61.5 °F 29.8 in SO 2.4 mph 5.2 mph 68.7% 0 in
05:29 72.3 °F 61.2 °F 29.8 in SO 2.9 mph 5.2 mph 68% 0 in
05:34 72.3 °F 61.2 °F 29.8 in SSO 3.1 mph 5.2 mph 68% 0 in
05:39 72.3 °F 61.2 °F 29.8 in SSO 3.1 mph 5 mph 68% 0 in
05:44 72.3 °F 61.2 °F 29.8 in SO 3.1 mph 5.2 mph 68% 0 in
05:49 72.1 °F 61 °F 29.8 in SO 3 mph 5 mph 68% 0 in
05:54 72.1 °F 61 °F 29.8 in SO 2.9 mph 6.2 mph 68% 0 in
05:59 72.1 °F 61 °F 29.8 in SO 3 mph 6 mph 68% 0 in
06:04 72 °F 60.8 °F 29.8 in OSO 3.1 mph 5 mph 68% 0 in
06:09 72 °F 60.6 °F 29.8 in OSO 3 mph 5.9 mph 68% 0 in
06:14 71.8 °F 60.6 °F 29.8 in SO 2.9 mph 6 mph 68% 0 in
06:19 71.4 °F 60.3 °F 29.8 in SO 3.6 mph 4.6 mph 68% 0 in
06:24 71.4 °F 60.3 °F 29.8 in SO 4 mph 4.7 mph 68% 0 in
06:29 71.4 °F 60.3 °F 29.8 in SO 3 mph 4.6 mph 68% 0 in
06:34 71.4 °F 60.3 °F 29.8 in SO 2.4 mph 3.6 mph 68% 0 in
06:39 71.4 °F 60.3 °F 29.8 in Sur 2.4 mph 5.9 mph 68% 0 in
06:44 71.2 °F 60.3 °F 29.8 in Sur 2.4 mph 5.9 mph 68.3% 0 in
06:49 71.1 °F 60.4 °F 29.8 in SSE 3.4 mph 6.9 mph 69% 0 in
06:54 71.1 °F 60.3 °F 29.8 in Sur 4 mph 7.6 mph 69% 0 in
06:59 70.9 °F 60.1 °F 29.8 in SSO 4.2 mph 8.7 mph 68.9% 0 in
07:04 70.7 °F 59.7 °F 29.8 in SSO 4.3 mph 9 mph 68.4% 0 in
07:09 70.7 °F 59.5 °F 29.8 in SSO 4.3 mph 8.1 mph 68% 0 in
07:14 70.7 °F 59.5 °F 29.8 in Sur 4.3 mph 6.9 mph 68% 0 in
07:19 70.7 °F 59.7 °F 29.8 in Sur 4.5 mph 7.4 mph 68% 0 in
07:24 70.7 °F 59.4 °F 29.8 in Sur 4.7 mph 7 mph 67.2% 0 in
07:29 70.7 °F 59.2 °F 29.8 in SSO 4.7 mph 8.5 mph 67% 0 in
07:34 70.7 °F 59.2 °F 29.8 in Sur 4.7 mph 9 mph 67% 0 in
07:39 70.9 °F 59.4 °F 29.9 in Sur 4.7 mph 8.1 mph 67% 0 in
07:44 70.7 °F 59.4 °F 29.9 in SSO 4.7 mph 8.5 mph 67% 0 in
07:49 70.7 °F 59.2 °F 29.9 in Sur 5.2 mph 9.2 mph 67% 0 in
07:54 70.7 °F 59.2 °F 29.9 in Sur 5.4 mph 9 mph 67% 0 in
07:59 70.9 °F 59.4 °F 29.8 in Sur 5.3 mph 6.9 mph 67% 0 in
08:04 71.1 °F 59.2 °F 29.8 in Sur 5.2 mph 7 mph 66.1% 0 in
08:09 71.1 °F 58.8 °F 29.8 in SSO 5.2 mph 7.4 mph 65.5% 0 in
08:14 71.2 °F 59.2 °F 29.8 in Sur 5.2 mph 6.9 mph 65.9% 0 in
08:19 71.2 °F 59.2 °F 29.8 in SSO 4.6 mph 7 mph 65.4% 0 in
08:24 71.6 °F 59 °F 29.9 in SO 4.3 mph 6 mph 64.6% 0 in
08:29 72 °F 59 °F 29.9 in SSO 3.9 mph 6.9 mph 64% 0 in
08:34 72 °F 58.8 °F 29.9 in SSO 3.6 mph 6.9 mph 63.4% 0 in
08:39 72.1 °F 58.6 °F 29.9 in SSO 3.2 mph 7 mph 62.2% 0 in
08:44 72.5 °F 58.5 °F 29.9 in SSO 3.1 mph 8.5 mph 61.4% 0 in
08:49 72.7 °F 58.1 °F 29.9 in SO 3.8 mph 9 mph 60.3% 0 in
08:54 72.9 °F 58.3 °F 29.9 in SSO 4.3 mph 6.9 mph 60% 0 in
08:59 73 °F 58.3 °F 29.9 in SSO 4.1 mph 7 mph 60% 0 in
09:04 73 °F 58.3 °F 29.9 in SSO 4 mph 9.2 mph 60% 0 in
09:09 73 °F 58.3 °F 29.9 in SSO 3.5 mph 9 mph 60% 0 in
09:14 73 °F 58.5 °F 29.9 in SSO 3.1 mph 5.9 mph 60% 0 in
09:19 73.2 °F 58.1 °F 29.9 in SSO 3.1 mph 6 mph 59.3% 0 in
09:24 73.2 °F 58.1 °F 29.9 in SSO 3.1 mph 5.8 mph 59.1% 0 in
09:29 73.4 °F 58.6 °F 29.9 in OSO 3.1 mph 6 mph 60% 0 in
09:34 73.6 °F 58.8 °F 29.9 in Oeste 3.1 mph 5.2 mph 60% 0 in
09:39 73.6 °F 58.8 °F 29.9 in OSO 3 mph 3.6 mph 60% 0 in
09:44 73.8 °F 59.4 °F 29.9 in SO 2.9 mph 5.9 mph 60.6% 0 in
09:49 73.9 °F 59.2 °F 29.9 in SSO 3 mph 6 mph 60.1% 0 in
09:54 73.9 °F 59.2 °F 29.9 in Oeste 3.1 mph 4.6 mph 60% 0 in
09:59 74.3 °F 59.2 °F 29.9 in ONO 2.4 mph 5 mph 59.2% 0 in
10:04 74.5 °F 59.2 °F 29.9 in Oeste 2 mph 5 mph 59% 0 in
10:09 74.7 °F 59.2 °F 29.9 in SO 2 mph 4.6 mph 58.4% 0 in
10:14 74.7 °F 59.2 °F 29.9 in SSO 2 mph 2.9 mph 58.2% 0 in
10:19 74.8 °F 59.2 °F 29.9 in SSO 1.6 mph 3 mph 58% 0 in
10:24 75.2 °F 59.4 °F 29.9 in SSO 1.4 mph 3.5 mph 58% 0 in
10:29 75.6 °F 59.7 °F 29.9 in Oeste 1.4 mph 3.6 mph 58% 0 in
10:34 75.7 °F 59.7 °F 29.9 in NNE 1.4 mph 4 mph 57.5% 0 in
10:39 76.1 °F 59.7 °F 29.9 in NE 1.7 mph 4 mph 57% 0 in
10:44 76.5 °F 59.7 °F 29.9 in NNE 1.8 mph 3.6 mph 56.3% 0 in
10:49 76.6 °F 59.9 °F 29.9 in NO 1.9 mph 4.6 mph 56% 0 in
10:54 76.8 °F 59.7 °F 29.9 in NNO 2 mph 4.6 mph 55.8% 0 in
10:59 76.8 °F 59.5 °F 29.9 in NNO 2.2 mph 4.7 mph 55.2% 0 in
11:04 76.8 °F 59.9 °F 29.9 in NNO 2.4 mph 5 mph 56% 0 in
11:09 77 °F 60.4 °F 29.9 in NNO 2.4 mph 6.2 mph 56.5% 0 in
11:14 77.4 °F 61.2 °F 29.9 in North 2.4 mph 5.9 mph 57.5% 0 in
11:19 77.4 °F 61.9 °F 29.9 in NNE 2.8 mph 6.9 mph 59% 0 in
11:24 77.4 °F 62.2 °F 29.9 in North 3.1 mph 7 mph 59.6% 0 in
11:29 77.5 °F 62.6 °F 29.9 in NNO 3.4 mph 8.1 mph 59.8% 0 in
11:34 77.9 °F 62.8 °F 29.9 in NNO 3.6 mph 8.1 mph 60% 0 in
11:39 78.1 °F 63.3 °F 29.9 in NNE 3.9 mph 8.1 mph 60.6% 0 in
11:44 77.7 °F 63.7 °F 29.9 in NNE 4 mph 8.7 mph 61.8% 0 in
11:49 77.5 °F 63 °F 29.9 in NE 4.8 mph 9.2 mph 61.1% 0 in
11:54 77.5 °F 63.3 °F 29.9 in NNE 5.4 mph 9 mph 61.9% 0 in
11:59 77.5 °F 63.5 °F 29.9 in NNE 5.4 mph 10.4 mph 62% 0 in
12:04 77.7 °F 63.9 °F 29.9 in NE 5.4 mph 10 mph 62.3% 0 in
12:09 77.9 °F 64.2 °F 29.9 in North 5.7 mph 10.7 mph 63% 0 in
12:14 78.1 °F 64.9 °F 29.9 in NNE 5.9 mph 8.1 mph 63.9% 0 in
12:19 78.3 °F 64.9 °F 29.9 in NNE 5.5 mph 11.5 mph 64% 0 in
12:24 78.4 °F 65.3 °F 29.9 in NNE 5.2 mph 6.9 mph 64% 0 in
12:29 79 °F 64.9 °F 29.9 in NNE 4.9 mph 11.5 mph 62.6% 0 in
12:34 79 °F 64.9 °F 29.9 in NNE 4.7 mph 12 mph 62.3% 0 in
12:39 79.2 °F 65.1 °F 29.9 in NE 5 mph 10.4 mph 62.3% 0 in
12:44 79.3 °F 64.9 °F 29.9 in NNE 5.2 mph 12.7 mph 61.3% 0 in
12:49 79.9 °F 63.7 °F 29.9 in NNE 5.3 mph 17.8 mph 57.8% 0 in
12:54 80.2 °F 63.1 °F 29.9 in NE 5.4 mph 20.1 mph 56.1% 0 in
12:59 80.6 °F 63 °F 29.9 in NE 8.9 mph 21 mph 55.3% 0 in
13:04 80.6 °F 62.6 °F 29.9 in NE 10.7 mph 18.4 mph 54.5% 0 in
13:09 80.4 °F 62.8 °F 29.9 in NE 11 mph 18.5 mph 54.9% 0 in
13:14 80.8 °F 62.6 °F 29.9 in NE 11.2 mph 19 mph 54.1% 0 in
13:19 80.4 °F 62.4 °F 29.9 in NE 10.3 mph 20.8 mph 54.4% 0 in
13:24 80.4 °F 62.2 °F 29.9 in NE 9.7 mph 21 mph 54% 0 in
13:29 80.2 °F 62.1 °F 29.9 in NE 10.3 mph 19.7 mph 54% 0 in
13:34 80.4 °F 62.4 °F 29.9 in NE 10.7 mph 21.9 mph 54.1% 0 in
13:39 80.8 °F 62.4 °F 29.9 in NE 10.7 mph 22 mph 53.8% 0 in
13:44 80.6 °F 62.1 °F 29.9 in ENE 10.7 mph 18.4 mph 53.1% 0 in
13:49 80.8 °F 61.2 °F 29.9 in NE 10.7 mph 18 mph 51.3% 0 in
13:54 80.8 °F 61 °F 29.9 in ENE 10.7 mph 20.7 mph 51% 0 in
13:59 80.6 °F 61.3 °F 29.9 in NE 9.4 mph 21 mph 52% 0 in
14:04 80.4 °F 61.3 °F 29.9 in ENE 8.7 mph 17 mph 52.3% 0 in
14:09 80.8 °F 62.6 °F 29.9 in ENE 8.9 mph 15.2 mph 54.1% 0 in
14:14 81 °F 63.3 °F 29.8 in NE 9.2 mph 15.9 mph 55.3% 0 in
14:19 80.8 °F 62.6 °F 29.8 in NE 8.8 mph 16.1 mph 54.1% 0 in
14:24 80.6 °F 62.6 °F 29.8 in NE 8.7 mph 16 mph 54.2% 0 in
14:29 80.4 °F 62.2 °F 29.8 in NE 8.8 mph 15 mph 54.1% 0 in
14:34 80.4 °F 62.4 °F 29.8 in NE 9.2 mph 17.3 mph 54.2% 0 in
14:39 80.4 °F 62.2 °F 29.8 in NE 9.7 mph 17 mph 54% 0 in
14:44 80.8 °F 62.8 °F 29.8 in NE 10 mph 16 mph 54.6% 0 in
14:49 81.1 °F 62.8 °F 29.8 in NE 8.4 mph 19 mph 53.4% 0 in
14:54 81.1 °F 62.8 °F 29.8 in NNE 7.4 mph 19 mph 53.6% 0 in
14:59 81.5 °F 63 °F 29.8 in NE 9.4 mph 18 mph 53.3% 0 in
15:04 81.9 °F 63.5 °F 29.8 in NE 10.2 mph 19.7 mph 54% 0 in
15:09 81.9 °F 63.1 °F 29.9 in NE 10.9 mph 20 mph 53.2% 0 in
15:14 81.9 °F 63.5 °F 29.9 in ENE 11.2 mph 17 mph 53.9% 0 in
15:19 81.9 °F 63.7 °F 29.9 in NE 9.7 mph 18.4 mph 54.2% 0 in
15:24 81.7 °F 63.5 °F 29.9 in ENE 8.7 mph 21.3 mph 54.1% 0 in
15:29 81.5 °F 63 °F 29.8 in ENE 10.5 mph 21 mph 53.5% 0 in
15:34 81.9 °F 62.8 °F 29.8 in NE 11.4 mph 21 mph 52.6% 0 in
15:39 81.9 °F 61.9 °F 29.8 in NE 10.5 mph 15.2 mph 50.9% 0 in
15:44 81.9 °F 61.3 °F 29.8 in ENE 10 mph 13.7 mph 49.8% 0 in
15:49 82 °F 61.3 °F 29.8 in NE 8.6 mph 17.5 mph 49.5% 0 in
15:54 82 °F 61.3 °F 29.8 in NE 7.6 mph 17.3 mph 49.8% 0 in
15:59 81.9 °F 62.2 °F 29.8 in ENE 9.1 mph 15 mph 51.4% 0 in
16:04 82 °F 61.3 °F 29.8 in NNE 10 mph 17.3 mph 49.7% 0 in
16:09 82 °F 60.8 °F 29.8 in NE 9.1 mph 16.8 mph 48.4% 0 in
16:14 82 °F 60.8 °F 29.8 in NE 8.5 mph 19.2 mph 48.9% 0 in
16:19 81.7 °F 61.5 °F 29.8 in NE 9.8 mph 20 mph 50.5% 0 in
16:24 81.7 °F 61.9 °F 29.8 in NE 10.7 mph 19.7 mph 51.2% 0 in
16:29 81.7 °F 61.9 °F 29.8 in NE 10.4 mph 20 mph 51% 0 in
16:34 81.9 °F 61.3 °F 29.8 in ENE 10.2 mph 17.3 mph 50.1% 0 in
16:39 82 °F 62.2 °F 29.8 in NE 8.9 mph 16.1 mph 51.2% 0 in
16:44 82.2 °F 61.9 °F 29.8 in ENE 8.1 mph 15.2 mph 50.2% 0 in
16:49 82 °F 61.5 °F 29.8 in NE 8.3 mph 15 mph 49.9% 0 in
16:54 82.2 °F 61.7 °F 29.8 in ENE 8.5 mph 13.8 mph 50% 0 in
16:59 82.2 °F 62.1 °F 29.8 in NE 8.5 mph 16.3 mph 50.5% 0 in
17:04 82.2 °F 61.5 °F 29.8 in NE 8.5 mph 16 mph 49.7% 0 in
17:09 82.2 °F 61.5 °F 29.9 in NE 8.3 mph 18.5 mph 49.8% 0 in
17:14 81.9 °F 62.1 °F 29.9 in NE 8.1 mph 15 mph 51.2% 0 in
17:19 81.9 °F 62.2 °F 29.9 in NE 9.3 mph 19 mph 51.5% 0 in
17:24 81.7 °F 62.6 °F 29.9 in NE 10.2 mph 18.4 mph 52.4% 0 in
17:29 81.5 °F 63.3 °F 29.8 in NE 10.9 mph 20.8 mph 54% 0 in
17:34 81.3 °F 63.5 °F 29.8 in ENE 11.4 mph 20.7 mph 54.8% 0 in
17:39 81.5 °F 63.7 °F 29.9 in Este 10.7 mph 13.8 mph 54.9% 0 in
17:44 81.7 °F 63.3 °F 29.9 in NE 10.2 mph 14 mph 53.9% 0 in
17:49 81.7 °F 63 °F 29.9 in NE 9.2 mph 14 mph 53.2% 0 in
17:54 81.7 °F 62.8 °F 29.9 in NE 8.5 mph 14 mph 53% 0 in
17:59 81.1 °F 62.4 °F 29.9 in NE 8.5 mph 17.5 mph 53% 0 in
18:04 81 °F 62.6 °F 29.9 in NE 8.5 mph 19.7 mph 53.8% 0 in
18:09 80.8 °F 62.6 °F 29.9 in NE 9.6 mph 20 mph 54% 0 in
18:14 81 °F 63 °F 29.8 in NE 10.2 mph 16.1 mph 54.7% 0 in
18:19 80.8 °F 63.3 °F 29.8 in NE 10.6 mph 21.3 mph 55.3% 0 in
18:24 80.4 °F 63.3 °F 29.8 in NE 10.7 mph 21 mph 56% 0 in
18:29 80.8 °F 63.5 °F 29.8 in NE 10.3 mph 21 mph 55.6% 0 in
18:34 80.8 °F 63.3 °F 29.8 in NE 10 mph 15 mph 55.6% 0 in
18:39 80.6 °F 63 °F 29.9 in NNE 10 mph 14 mph 55.1% 0 in
18:44 80.8 °F 62.6 °F 29.9 in NNE 10 mph 12.7 mph 54.1% 0 in
18:49 81.1 °F 62.8 °F 29.9 in NE 8.5 mph 14 mph 54% 0 in
18:54 81 °F 63 °F 29.9 in NE 7.6 mph 14 mph 54.3% 0 in
18:59 80.8 °F 62.8 °F 29.9 in NE 8.1 mph 15 mph 54.4% 0 in
19:04 80.4 °F 62.8 °F 29.9 in NE 8.5 mph 15 mph 55% 0 in
19:09 80.4 °F 62.2 °F 29.9 in NE 8.9 mph 16.1 mph 54.1% 0 in
19:14 80.4 °F 62.1 °F 29.9 in NNE 9.2 mph 16.1 mph 53.8% 0 in
19:19 80.2 °F 62.4 °F 29.8 in NNE 9.9 mph 16.1 mph 54.6% 0 in
19:24 80.6 °F 62.4 °F 29.9 in NE 10.2 mph 13.5 mph 54% 0 in
19:29 80.6 °F 61.9 °F 29.9 in NNE 9.2 mph 16.1 mph 53% 0 in
19:34 80.4 °F 61.2 °F 29.9 in NNE 8.5 mph 15 mph 52% 0 in
19:39 80.2 °F 62.4 °F 29.9 in NNE 8.6 mph 17.5 mph 54.4% 0 in
19:44 79.9 °F 61.3 °F 29.9 in NE 8.7 mph 17 mph 53.4% 0 in
19:49 79.9 °F 60.6 °F 29.9 in NE 10.3 mph 16.1 mph 51.7% 0 in
19:54 80.1 °F 60.6 °F 29.9 in NE 11.4 mph 16.1 mph 51.5% 0 in
19:59 80.1 °F 60.4 °F 29.9 in NE 9.6 mph 16.1 mph 51.3% 0 in
20:04 80.1 °F 59.9 °F 29.9 in NE 8.7 mph 16.1 mph 50.4% 0 in
20:09 80.1 °F 60.3 °F 29.9 in NNE 9 mph 16.1 mph 50.8% 0 in
20:14 80.1 °F 61 °F 29.9 in NE 9.2 mph 14 mph 52.3% 0 in
20:19 79.9 °F 62.6 °F 29.9 in NE 9.2 mph 16.1 mph 55.5% 0 in
20:24 79.5 °F 63.5 °F 29.9 in NE 9.2 mph 17.3 mph 58.2% 0 in
20:29 79.2 °F 64 °F 29.9 in NE 9.7 mph 17.5 mph 59.7% 0 in
20:34 79 °F 64.6 °F 29.9 in Este 10 mph 13.8 mph 61.5% 0 in
20:39 78.6 °F 64.9 °F 29.9 in Este 7.7 mph 14 mph 62.8% 0 in
20:44 78.4 °F 64.9 °F 29.9 in Este 6.4 mph 12.7 mph 63.2% 0 in
20:49 78.1 °F 64.9 °F 29.9 in Este 6.1 mph 11.5 mph 64% 0 in
20:54 77.5 °F 64.8 °F 29.9 in Este 5.9 mph 10.7 mph 64.8% 0 in
20:59 77.2 °F 64.6 °F 29.9 in Este 5.9 mph 8.5 mph 65% 0 in
21:04 77.2 °F 64.4 °F 29.9 in Este 5.9 mph 9 mph 65% 0 in
21:09 76.8 °F 64.4 °F 29.9 in NE 4.8 mph 9.2 mph 65.7% 0 in
21:14 76.5 °F 64.9 °F 29.9 in NNE 4 mph 10.7 mph 67.4% 0 in
21:19 76.1 °F 65.1 °F 29.9 in NNE 4.8 mph 11 mph 69% 0 in
21:24 75.7 °F 65.3 °F 29.9 in NE 5.4 mph 12.7 mph 70.4% 0 in
21:29 75.2 °F 65.3 °F 29.9 in NE 6.3 mph 13 mph 71.5% 0 in
21:34 74.8 °F 65.1 °F 29.9 in NE 6.9 mph 11.5 mph 72.1% 0 in
21:39 74.7 °F 65.3 °F 29.9 in NNE 6.9 mph 12 mph 73% 0 in
21:44 74.5 °F 65.5 °F 29.9 in NE 6.9 mph 11.8 mph 73.9% 0 in
21:49 74.1 °F 65.3 °F 29.9 in NE 7.2 mph 13.8 mph 74% 0 in
21:54 73.9 °F 65.5 °F 29.9 in NE 7.4 mph 12.5 mph 74.9% 0 in
21:59 73.8 °F 65.3 °F 29.9 in NE 7.8 mph 12.7 mph 75% 0 in
22:04 73.8 °F 65.3 °F 29.9 in NE 8.1 mph 13 mph 75.1% 0 in
22:09 73.6 °F 65.5 °F 29.9 in NNE 7.4 mph 12 mph 76% 0 in
22:14 73.4 °F 65.5 °F 29.9 in NNE 6.9 mph 9.2 mph 76% 0 in
22:19 73.2 °F 65.5 °F 29.9 in NNE 6.5 mph 12.3 mph 76.8% 0 in
22:24 73 °F 65.5 °F 29.9 in NE 6.2 mph 13.8 mph 77.3% 0 in
22:29 72.9 °F 65.7 °F 29.9 in NNE 7.6 mph 12.7 mph 78% 0 in
22:34 72.9 °F 65.5 °F 29.9 in NE 8.5 mph 13 mph 78% 0 in
22:39 72.9 °F 65.5 °F 29.9 in NE 7.3 mph 8.5 mph 78% 0 in
22:44 72.7 °F 65.7 °F 29.9 in NE 6.4 mph 10.4 mph 78.6% 0 in
22:49 72.7 °F 65.7 °F 29.9 in NE 6.7 mph 11.8 mph 79% 0 in
22:54 72.5 °F 65.5 °F 29.9 in NE 6.9 mph 11.5 mph 79% 0 in
22:59 72.3 °F 65.5 °F 29.9 in NE 6.6 mph 12 mph 79.3% 0 in
23:04 72.3 °F 65.8 °F 29.9 in ENE 6.4 mph 11 mph 80% 0 in
23:09 72.3 °F 65.8 °F 29.9 in Este 6.1 mph 10 mph 80% 0 in
23:14 72.3 °F 65.8 °F 29.9 in Este 5.9 mph 8.5 mph 80% 0 in
23:19 72.5 °F 66 °F 29.9 in Este 5.2 mph 9 mph 80% 0 in
23:24 72.5 °F 65.8 °F 29.9 in ENE 4.7 mph 7 mph 80% 0 in
Murcia-Puente Tocinos, España
Compliments of Weather Underground - 3 mb

La estación de MeteoMurcia.com, publica sus datos en los siguientes proyectos:

Weather Underground PWS IMURCIAP2 Meteoclimatic www.awekas.at

W3Counter
Web Analytics